Time;durP1;ratioP1;P1;durP2;ratioP2;P2;SDS_P1;SDS_P2;PMS_P1;PMS_P2;Temp;Humidity;BMP_temperature;BMP_pressure;BME280_temperature;BME280_humidity;BME280_pressure;Samples;Min_cycle;Max_cycle;Signal;HPM_P1;HPM_P2
2023/10/14 00:01:24;;;;;;;;;;;;;;;16.36;100.00;97333.34;5092019;28;19925;-67
2023/10/14 00:03:51;;;;;;;;;;;;;;;16.34;100.00;97330.19;5100005;28;19932;-67
2023/10/14 00:06:18;;;;;;;;;;;;;;;16.30;100.00;97326.53;5096848;28;19980;-67
2023/10/14 00:08:54;;;;;;;;;;;;;;;16.35;100.00;97323.69;5099996;28;19928;-68
2023/10/14 00:11:22;;;;;;;;;;;;;;;16.28;100.00;97326.06;5103195;28;20312;-67
2023/10/14 00:13:49;;;;;;;;;;;;;;;16.48;100.00;97317.38;5103825;28;19930;-67
2023/10/14 00:16:25;;;;;;;;;;;;;;;16.16;100.00;97326.63;5101516;28;19920;-66
2023/10/14 00:18:51;;;;;;;;;;;;;;;16.52;100.00;97326.41;5100063;28;19924;-67
2023/10/14 00:21:18;;;;;;;;;;;;;;;16.76;100.00;97315.19;5103723;28;19924;-67
2023/10/14 00:23:45;;;;;;;;;;;;;;;16.39;100.00;97322.75;5104946;28;19934;-66
2023/10/14 00:26:16;;;;;;;;;;;;;;;16.59;100.00;97315.97;5102225;28;19924;-67
2023/10/14 00:28:54;;;;;;;;;;;;;;;17.09;100.00;97319.00;5100101;28;20432;-67
2023/10/14 00:31:21;;;;;;;;;;;;;;;16.85;100.00;97314.09;5103040;28;19959;-67
2023/10/14 00:33:48;;;;;;;;;;;;;;;16.70;100.00;97304.59;5103231;28;19980;-66
2023/10/14 00:36:16;;;;;;;;;;;;;;;16.85;100.00;97299.81;5094990;28;19925;-67
2023/10/14 00:38:44;;;;;;;;;;;;;;;17.19;100.00;97300.59;5099973;28;19970;-67
2023/10/14 00:41:11;;;;;;;;;;;;;;;17.37;100.00;97303.25;5101019;28;19925;-67
2023/10/14 00:43:39;;;;;;;;;;;;;;;17.57;100.00;97308.78;5103757;28;20498;-66
2023/10/14 00:46:10;;;;;;;;;;;;;;;17.71;100.00;97308.56;5104310;28;19930;-66
2023/10/14 00:48:40;;;;;;;;;;;;;;;17.75;100.00;97307.63;5100008;28;19987;-67
2023/10/14 00:51:08;;;;;;;;;;;;;;;17.78;100.00;97301.56;5102848;28;19924;-67
2023/10/14 00:53:38;;;;;;;;;;;;;;;17.73;100.00;97300.97;5098569;28;19924;-70
2023/10/14 00:56:04;;;;;;;;;;;;;;;17.80;100.00;97301.22;5092340;28;19924;-67
2023/10/14 00:58:39;;;;;;;;;;;;;;;17.70;100.00;97296.22;5103357;28;19954;-67
2023/10/14 01:01:07;;;;;;;;;;;;;;;17.73;100.00;97300.97;5100561;28;19950;-67
2023/10/14 01:03:34;;;;;;;;;;;;;;;17.54;100.00;97297.81;5099224;28;19931;-67
2023/10/14 01:06:07;;;;;;;;;;;;;;;17.46;100.00;97290.50;5096089;28;19997;-67
2023/10/14 01:08:38;;;;;;;;;;;;;;;17.47;100.00;97292.91;5099314;28;20007;-67
2023/10/14 01:11:04;;;;;;;;;;;;;;;17.22;100.00;97291.84;5099996;28;19924;-67
2023/10/14 01:13:31;;;;;;;;;;;;;;;17.40;100.00;97289.09;5102654;28;19931;-66
2023/10/14 01:16:02;;;;;;;;;;;;;;;17.39;100.00;97284.84;5102524;28;19952;-66
2023/10/14 01:18:34;;;;;;;;;;;;;;;17.47;100.00;97290.19;5091268;28;19928;-66
2023/10/14 01:21:01;;;;;;;;;;;;;;;16.80;100.00;97281.91;5098221;28;19946;-67
2023/10/14 01:23:28;;;;;;;;;;;;;;;17.06;100.00;97277.28;5102447;28;19931;-67
2023/10/14 01:25:57;;;;;;;;;;;;;;;16.61;100.00;97276.84;5102248;28;19927;-67
2023/10/14 01:28:30;;;;;;;;;;;;;;;16.40;100.00;97270.41;5090631;28;19991;-67
2023/10/14 01:31:24;;;;;;;;;;;;;;;15.54;100.00;97277.47;5098534;28;19931;-67
2023/10/14 01:33:51;;;;;;;;;;;;;;;15.29;100.00;97283.50;5094340;28;19956;-66
2023/10/14 01:36:17;;;;;;;;;;;;;;;15.75;100.00;97283.91;5095471;28;19931;-66
2023/10/14 01:38:57;;;;;;;;;;;;;;;15.63;100.00;97262.16;5098714;28;19955;-66
2023/10/14 01:41:23;;;;;;;;;;;;;;;15.31;100.00;97265.94;5090415;28;19928;-67
2023/10/14 01:43:50;;;;;;;;;;;;;;;15.58;100.00;97265.78;5099929;28;19954;-67
2023/10/14 01:46:18;;;;;;;;;;;;;;;15.73;100.00;97264.56;5101622;28;19924;-67
2023/10/14 01:48:51;;;;;;;;;;;;;;;15.70;100.00;97270.56;5102347;28;20627;-67
2023/10/14 01:51:19;;;;;;;;;;;;;;;15.42;100.00;97258.38;5099391;28;19987;-67
2023/10/14 01:53:46;;;;;;;;;;;;;;;15.97;100.00;97256.88;5102152;28;19928;-67
2023/10/14 01:56:13;;;;;;;;;;;;;;;15.81;100.00;97253.06;5104011;28;19936;-67
2023/10/14 01:58:41;;;;;;;;;;;;;;;15.85;100.00;97254.00;5105556;28;19946;-67
2023/10/14 02:01:14;;;;;;;;;;;;;;;15.75;100.00;97257.00;5104233;28;19924;-67
2023/10/14 02:03:43;;;;;;;;;;;;;;;15.45;100.00;97255.88;5101839;28;19962;-67
2023/10/14 02:06:11;;;;;;;;;;;;;;;15.52;100.00;97256.25;5098668;28;20399;-67
2023/10/14 02:08:38;;;;;;;;;;;;;;;15.59;100.00;97255.81;5101935;28;19983;-67
2023/10/14 02:11:06;;;;;;;;;;;;;;;15.93;100.00;97255.13;5103272;28;19924;-67
2023/10/14 02:13:36;;;;;;;;;;;;;;;16.20;100.00;97260.25;5106393;28;19987;-67
2023/10/14 02:16:07;;;;;;;;;;;;;;;16.31;100.00;97258.84;5104982;28;19935;-66
2023/10/14 02:18:36;;;;;;;;;;;;;;;16.26;100.00;97255.50;5101628;28;19924;-66
2023/10/14 02:21:06;;;;;;;;;;;;;;;16.13;100.00;97260.72;5100899;28;19928;-66
2023/10/14 02:23:43;;;;;;;;;;;;;;;16.05;100.00;97250.75;5104819;28;19931;-66
2023/10/14 02:26:12;;;;;;;;;;;;;;;16.59;100.00;97256.66;5103219;28;19924;-66
2023/10/14 02:28:40;;;;;;;;;;;;;;;16.00;100.00;97252.78;5101198;28;19925;-66
2023/10/14 02:31:16;;;;;;;;;;;;;;;15.88;100.00;97250.69;5102276;28;20491;-66
2023/10/14 02:33:45;;;;;;;;;;;;;;;15.99;100.00;97246.59;5104661;28;20277;-66
2023/10/14 02:36:15;;;;;;;;;;;;;;;15.96;100.00;97243.75;5096445;28;19931;-66
2023/10/14 02:38:41;;;;;;;;;;;;;;;15.77;100.00;97246.69;5101234;28;19925;-65
2023/10/14 02:41:08;;;;;;;;;;;;;;;15.55;100.00;97244.09;5102402;28;19924;-66
2023/10/14 02:43:37;;;;;;;;;;;;;;;15.48;100.00;97249.91;5104636;28;19935;-66
2023/10/14 02:46:10;;;;;;;;;;;;;;;15.36;100.00;97243.47;5103668;28;19946;-66
2023/10/14 02:48:52;;;;;;;;;;;;;;;15.12;100.00;97254.59;5101176;28;19925;-65
2023/10/14 02:51:29;;;;;;;;;;;;;;;15.20;100.00;97253.03;5103990;28;19935;-65
2023/10/14 02:53:56;;;;;;;;;;;;;;;15.18;100.00;97248.00;5104700;28;20382;-66
2023/10/14 02:56:32;;;;;;;;;;;;;;;15.24;100.00;97249.44;5101052;28;19986;-66
2023/10/14 02:59:00;;;;;;;;;;;;;;;15.05;100.00;97257.72;5100864;28;20576;-66
2023/10/14 03:01:31;;;;;;;;;;;;;;;14.98;100.00;97257.34;5093016;28;19974;-66
2023/10/14 03:04:04;;;;;;;;;;;;;;;15.03;100.00;97246.50;5100243;28;19950;-66
2023/10/14 03:06:31;;;;;;;;;;;;;;;14.88;100.00;97249.56;5087429;28;19978;-66
2023/10/14 03:08:59;;;;;;;;;;;;;;;14.87;100.00;97245.28;5100642;28;19931;-66
2023/10/14 03:11:26;;;;;;;;;;;;;;;14.84;100.00;97251.25;5092735;28;19925;-66
2023/10/14 03:13:52;;;;;;;;;;;;;;;14.85;100.00;97252.06;5099624;28;19955;-66
2023/10/14 03:16:20;;;;;;;;;;;;;;;14.91;100.00;97243.56;5103273;28;19935;-66
2023/10/14 03:18:47;;;;;;;;;;;;;;;15.26;100.00;97263.38;5104171;28;19946;-66
2023/10/14 03:21:31;;;;;;;;;;;;;;;15.18;100.00;97255.25;5102893;28;19965;-66
2023/10/14 03:23:58;;;;;;;;;;;;;;;15.34;100.00;97264.53;5100474;28;19924;-66
2023/10/14 03:26:28;;;;;;;;;;;;;;;15.58;100.00;97267.69;5092060;28;19935;-66
2023/10/14 03:28:54;;;;;;;;;;;;;;;15.47;100.00;97259.06;5100268;28;19954;-66
2023/10/14 03:31:24;;;;;;;;;;;;;;;15.45;100.00;97253.19;5102021;28;19960;-66
2023/10/14 03:33:58;;;;;;;;;;;;;;;15.52;100.00;97248.19;5103678;28;20015;-66
2023/10/14 03:36:28;;;;;;;;;;;;;;;15.50;100.00;97247.72;5085450;28;19928;-66
2023/10/14 03:38:56;;;;;;;;;;;;;;;15.66;100.00;97253.44;5100116;28;19951;-66
2023/10/14 03:41:29;;;;;;;;;;;;;;;15.71;100.00;97252.53;5103371;28;20452;-66
2023/10/14 03:43:58;;;;;;;;;;;;;;;15.82;100.00;97249.25;5103669;28;19973;-66
2023/10/14 03:46:32;;;;;;;;;;;;;;;16.28;100.00;97256.00;5092152;28;19925;-66
2023/10/14 03:48:58;;;;;;;;;;;;;;;16.04;100.00;97248.34;5099776;28;19955;-66
2023/10/14 03:51:25;;;;;;;;;;;;;;;15.95;100.00;97234.88;5104376;28;19929;-66
2023/10/14 03:53:53;;;;;;;;;;;;;;;15.46;100.00;97235.94;5095450;28;20019;-66
2023/10/14 03:56:21;;;;;;;;;;;;;;;16.05;100.00;97239.97;5102718;28;19928;-66
2023/10/14 03:58:48;;;;;;;;;;;;;;;16.23;100.00;97248.84;5103346;28;19955;-66
2023/10/14 04:01:22;;;;;;;;;;;;;;;15.98;100.00;97238.81;5101055;28;19927;-66
2023/10/14 04:03:52;;;;;;;;;;;;;;;15.64;100.00;97234.94;5098885;28;19920;-66
2023/10/14 04:06:19;;;;;;;;;;;;;;;15.90;100.00;97237.72;5095632;28;20283;-66
2023/10/14 04:08:47;;;;;;;;;;;;;;;15.63;100.00;97241.41;5100448;28;19928;-66
2023/10/14 04:11:15;;;;;;;;;;;;;;;16.04;100.00;97230.28;5102448;28;19935;-66
2023/10/14 04:13:50;;;;;;;;;;;;;;;15.79;100.00;97228.31;5103575;28;19950;-66
2023/10/14 04:16:18;;;;;;;;;;;;;;;15.50;100.00;97228.09;5100126;28;19939;-66
2023/10/14 04:18:46;;;;;;;;;;;;;;;15.37;100.00;97231.63;5099827;28;19933;-67
2023/10/14 04:21:31;;;;;;;;;;;;;;;15.55;100.00;97236.81;5101562;28;19946;-65
2023/10/14 04:24:08;;;;;;;;;;;;;;;15.95;100.00;97242.94;5103106;28;20000;-65
2023/10/14 04:26:36;;;;;;;;;;;;;;;15.83;100.00;97226.59;5092840;28;19925;-65
2023/10/14 04:29:05;;;;;;;;;;;;;;;15.51;100.00;97229.66;5100311;28;19925;-65
2023/10/14 04:31:39;;;;;;;;;;;;;;;15.94;100.00;97219.81;5099414;28;19924;-65
2023/10/14 04:34:06;;;;;;;;;;;;;;;15.94;100.00;97225.19;5100280;28;19924;-65
2023/10/14 04:36:53;;;;;;;;;;;;;;;16.06;100.00;97211.91;5093779;28;20332;-65
2023/10/14 04:39:26;;;;;;;;;;;;;;;16.16;100.00;97222.38;5102440;28;19963;-65
2023/10/14 04:44:45;;;;;;;;;;;;;;;16.52;100.00;97224.00;5092376;28;19932;-65
2023/10/14 04:47:19;;;;;;;;;;;;;;;16.42;100.00;97216.22;5100527;28;19943;-65
2023/10/14 04:49:51;;;;;;;;;;;;;;;16.20;100.00;97215.25;5102474;28;19950;-67
2023/10/14 04:52:19;;;;;;;;;;;;;;;16.01;100.00;97227.41;5099750;28;19981;-68
2023/10/14 04:54:54;;;;;;;;;;;;;;;15.89;100.00;97222.66;5098976;28;19979;-67
2023/10/14 04:57:22;;;;;;;;;;;;;;;15.69;100.00;97228.59;5101974;28;19924;-65
2023/10/14 04:59:55;;;;;;;;;;;;;;;15.61;100.00;97216.72;5102221;28;19946;-66
2023/10/14 05:02:24;;;;;;;;;;;;;;;15.48;100.00;97214.13;5099151;28;19951;-66
2023/10/14 05:04:51;;;;;;;;;;;;;;;15.48;100.00;97212.22;5098590;28;19984;-66
2023/10/14 05:07:19;;;;;;;;;;;;;;;15.37;100.00;97205.53;5094730;28;20012;-66
2023/10/14 05:09:56;;;;;;;;;;;;;;;15.18;100.00;97201.47;5100965;28;20006;-66
2023/10/14 05:12:26;;;;;;;;;;;;;;;15.04;100.00;97201.56;5099002;28;19924;-68
2023/10/14 05:14:55;;;;;;;;;;;;;;;15.02;100.00;97190.31;5098567;28;19960;-65
2023/10/14 05:17:25;;;;;;;;;;;;;;;15.03;100.00;97198.09;5101724;28;19924;-66
2023/10/14 05:19:55;;;;;;;;;;;;;;;15.29;100.00;97190.13;5102095;28;19924;-66
2023/10/14 05:22:26;;;;;;;;;;;;;;;15.12;100.00;97182.00;5099091;28;19978;-66
2023/10/14 05:24:56;;;;;;;;;;;;;;;15.16;100.00;97182.16;5098705;28;19931;-66
2023/10/14 05:27:35;;;;;;;;;;;;;;;15.22;100.00;97186.31;5104943;28;20006;-66
2023/10/14 05:30:06;;;;;;;;;;;;;;;15.21;100.00;97190.09;5105559;28;19924;-66
2023/10/14 05:32:36;;;;;;;;;;;;;;;15.15;100.00;97181.38;5102278;28;19988;-66
2023/10/14 05:35:09;;;;;;;;;;;;;;;15.12;100.00;97192.75;5102747;28;19952;-66
2023/10/14 05:37:41;;;;;;;;;;;;;;;15.02;100.00;97196.50;5099572;28;19924;-66
2023/10/14 05:40:13;;;;;;;;;;;;;;;15.06;100.00;97196.69;5104805;28;19992;-66
2023/10/14 05:42:43;;;;;;;;;;;;;;;14.96;100.00;97195.03;5102277;28;19932;-66
2023/10/14 05:45:11;;;;;;;;;;;;;;;14.93;100.00;97184.91;5103644;28;19991;-66
2023/10/14 05:47:39;;;;;;;;;;;;;;;14.84;100.00;97181.38;5105795;28;19970;-66
2023/10/14 05:50:09;;;;;;;;;;;;;;;14.95;100.00;97193.44;5104566;28;20499;-66
2023/10/14 05:52:38;;;;;;;;;;;;;;;14.90;100.00;97193.59;5102118;28;19924;-66
2023/10/14 05:55:07;;;;;;;;;;;;;;;14.89;100.00;97200.06;5102722;28;19920;-66
2023/10/14 05:57:39;;;;;;;;;;;;;;;14.92;100.00;97199.44;5105424;28;19950;-66
2023/10/14 06:00:20;;;;;;;;;;;;;;;15.27;100.00;97202.31;5104421;28;19924;-66
2023/10/14 06:02:51;;;;;;;;;;;;;;;15.40;100.00;97209.50;5101870;28;19932;-67
2023/10/14 06:05:18;;;;;;;;;;;;;;;15.46;100.00;97213.63;5103320;28;19928;-67
2023/10/14 06:07:47;;;;;;;;;;;;;;;15.35;100.00;97212.31;5098574;28;19920;-67
2023/10/14 06:10:18;;;;;;;;;;;;;;;15.85;100.00;97208.22;5103415;28;19924;-67
2023/10/14 06:12:47;;;;;;;;;;;;;;;15.80;100.00;97210.28;5101612;28;19931;-67
2023/10/14 06:15:17;;;;;;;;;;;;;;;15.40;100.00;97214.88;5103607;28;19929;-67
2023/10/14 06:17:44;;;;;;;;;;;;;;;15.81;100.00;97204.59;5105069;28;19924;-67
2023/10/14 06:20:13;;;;;;;;;;;;;;;15.69;100.00;97211.69;5103795;28;19924;-67
2023/10/14 06:22:40;;;;;;;;;;;;;;;15.93;100.00;97218.25;5101617;28;20482;-67
2023/10/14 06:25:14;;;;;;;;;;;;;;;15.94;100.00;97217.09;5102459;28;19924;-67
2023/10/14 06:27:43;;;;;;;;;;;;;;;16.09;100.00;97222.03;5105056;28;19924;-67
2023/10/14 06:30:18;;;;;;;;;;;;;;;16.27;100.00;97228.28;5103458;28;19924;-67
2023/10/14 06:32:45;;;;;;;;;;;;;;;16.39;100.00;97214.97;5101102;28;19948;-67
2023/10/14 06:35:14;;;;;;;;;;;;;;;16.65;100.00;97217.66;5103013;28;19925;-67
2023/10/14 06:37:42;;;;;;;;;;;;;;;16.77;100.00;97225.91;5097583;28;19935;-67
2023/10/14 06:40:12;;;;;;;;;;;;;;;16.92;100.00;97228.13;5103255;28;19928;-67
2023/10/14 06:42:40;;;;;;;;;;;;;;;17.01;100.00;97220.00;5101334;28;19952;-67
2023/10/14 06:45:07;;;;;;;;;;;;;;;17.04;100.00;97222.84;5101207;28;19936;-66
2023/10/14 06:47:33;;;;;;;;;;;;;;;17.09;100.00;97238.84;5104734;28;19924;-66
2023/10/14 06:50:01;;;;;;;;;;;;;;;17.14;100.00;97237.91;5104871;28;19943;-66
2023/10/14 06:52:29;;;;;;;;;;;;;;;17.13;100.00;97249.81;5101513;28;19928;-66
2023/10/14 06:54:56;;;;;;;;;;;;;;;17.24;100.00;97254.53;5101267;28;19924;-66
2023/10/14 06:57:23;;;;;;;;;;;;;;;17.29;100.00;97261.69;5104471;28;19946;-67
2023/10/14 06:59:50;;;;;;;;;;;;;;;17.37;100.00;97266.25;5104823;28;19990;-66
2023/10/14 07:02:18;;;;;;;;;;;;;;;17.38;100.00;97272.44;5102590;28;19924;-66
2023/10/14 07:04:44;;;;;;;;;;;;;;;17.46;100.00;97277.00;5102214;28;19920;-67
2023/10/14 07:07:11;;;;;;;;;;;;;;;17.57;100.00;97286.41;5098188;28;19928;-67
2023/10/14 07:09:37;;;;;;;;;;;;;;;17.63;100.00;97304.00;5105609;28;19924;-66
2023/10/14 07:12:13;;;;;;;;;;;;;;;17.65;100.00;97312.56;5103765;28;19935;-66
2023/10/14 07:14:40;;;;;;;;;;;;;;;17.58;100.00;97314.97;5099388;28;19932;-66
2023/10/14 07:17:07;;;;;;;;;;;;;;;17.61;100.00;97320.50;5101359;28;19998;-66
2023/10/14 07:19:35;;;;;;;;;;;;;;;17.62;100.00;97315.91;5104575;28;19930;-66
2023/10/14 07:22:07;;;;;;;;;;;;;;;17.55;100.00;97299.41;5103432;28;19962;-66
2023/10/14 07:24:34;;;;;;;;;;;;;;;17.49;100.00;97276.38;5100211;28;19921;-67
2023/10/14 07:27:00;;;;;;;;;;;;;;;17.61;100.00;97263.81;5099227;28;19935;-66
2023/10/14 07:29:27;;;;;;;;;;;;;;;17.59;100.00;97262.56;5103607;28;20490;-66
2023/10/14 07:31:54;;;;;;;;;;;;;;;17.47;100.00;97265.09;5103475;28;19983;-66
2023/10/14 07:34:21;;;;;;;;;;;;;;;17.67;100.00;97275.25;5100883;28;19924;-66
2023/10/14 07:36:50;;;;;;;;;;;;;;;17.74;100.00;97289.81;5093453;28;19984;-66
2023/10/14 07:39:28;;;;;;;;;;;;;;;17.82;100.00;97287.41;5102492;28;19959;-66
2023/10/14 07:41:54;;;;;;;;;;;;;;;17.92;100.00;97293.22;5103714;28;19970;-66
2023/10/14 07:44:22;;;;;;;;;;;;;;;17.97;100.00;97300.38;5100659;28;19925;-66
2023/10/14 07:46:49;;;;;;;;;;;;;;;17.99;100.00;97304.31;5100080;28;19947;-66
2023/10/14 07:49:17;;;;;;;;;;;;;;;18.01;100.00;97309.41;5101401;28;19971;-66
2023/10/14 07:51:43;;;;;;;;;;;;;;;18.08;100.00;97302.38;5103645;28;20110;-66
2023/10/14 07:54:12;;;;;;;;;;;;;;;18.13;100.00;97315.72;5102114;28;19928;-66
2023/10/14 07:56:38;;;;;;;;;;;;;;;18.09;100.00;97303.97;5099922;28;19967;-66
2023/10/14 07:59:08;;;;;;;;;;;;;;;18.13;100.00;97309.53;5100505;28;19924;-66
2023/10/14 08:01:37;;;;;;;;;;;;;;;18.09;100.00;97303.16;5103384;28;19924;-66
2023/10/14 08:04:07;;;;;;;;;;;;;;;18.19;100.00;97305.50;5102461;28;19928;-66
2023/10/14 08:06:40;;;;;;;;;;;;;;;18.20;100.00;97307.88;5092106;28;20007;-66
2023/10/14 08:09:14;;;;;;;;;;;;;;;18.21;100.00;97314.88;5100610;28;19925;-66
2023/10/14 08:11:41;;;;;;;;;;;;;;;18.26;100.00;97317.38;5103173;28;19924;-66
2023/10/14 08:14:08;;;;;;;;;;;;;;;18.27;100.00;97324.38;5101760;28;19924;-66
2023/10/14 08:16:35;;;;;;;;;;;;;;;18.29;100.00;97319.41;5099437;28;19984;-66
2023/10/14 08:19:06;;;;;;;;;;;;;;;18.23;100.00;97330.75;5099686;28;19947;-67
2023/10/14 08:21:36;;;;;;;;;;;;;;;18.18;100.00;97329.03;5103227;28;19943;-67
2023/10/14 08:24:05;;;;;;;;;;;;;;;18.23;100.00;97331.53;5102385;28;19924;-67
2023/10/14 08:26:32;;;;;;;;;;;;;;;18.14;100.00;97336.19;5099231;28;19925;-67
2023/10/14 08:29:00;;;;;;;;;;;;;;;18.21;100.00;97344.59;5099033;28;19954;-66
2023/10/14 08:31:26;;;;;;;;;;;;;;;18.37;100.00;97342.13;5090763;28;19971;-67
2023/10/14 08:33:53;;;;;;;;;;;;;;;18.36;100.00;97356.75;5099248;28;19924;-67
2023/10/14 08:36:19;;;;;;;;;;;;;;;18.37;100.00;97349.44;5095822;28;19928;-67
2023/10/14 08:38:47;;;;;;;;;;;;;;;18.29;100.00;97341.03;5099015;28;19928;-67
2023/10/14 08:41:15;;;;;;;;;;;;;;;18.29;100.00;97351.84;5099878;28;19921;-67
2023/10/14 08:43:44;;;;;;;;;;;;;;;18.23;100.00;97341.56;5102457;28;19951;-66
2023/10/14 08:46:11;;;;;;;;;;;;;;;18.29;100.00;97341.03;5100646;28;19924;-66
2023/10/14 08:48:39;;;;;;;;;;;;;;;18.26;100.00;97363.31;5098951;28;19932;-67
2023/10/14 08:51:06;;;;;;;;;;;;;;;18.19;100.00;97357.66;5100001;28;19946;-67
2023/10/14 08:53:40;;;;;;;;;;;;;;;18.16;100.00;97349.41;5102640;28;20394;-67
2023/10/14 08:56:07;;;;;;;;;;;;;;;18.18;100.00;97361.47;5101508;28;19991;-66
2023/10/14 08:58:36;;;;;;;;;;;;;;;18.10;100.00;97356.91;5099188;28;19925;-67
2023/10/14 09:01:05;;;;;;;;;;;;;;;18.09;100.00;97370.72;5100800;28;19963;-68
2023/10/14 09:03:31;;;;;;;;;;;;;;;18.01;100.00;97349.94;5106522;28;19924;-68
2023/10/14 09:05:58;;;;;;;;;;;;;;;18.13;100.00;97352.75;5100777;28;19951;-68
2023/10/14 09:08:25;;;;;;;;;;;;;;;17.97;100.00;97347.09;5103390;28;20007;-68
2023/10/14 09:10:52;;;;;;;;;;;;;;;18.01;100.00;97350.72;5103335;28;20015;-69
2023/10/14 09:13:20;;;;;;;;;;;;;;;18.23;100.00;97347.75;5106005;28;19951;-68
2023/10/14 09:15:48;;;;;;;;;;;;;;;18.44;100.00;97355.13;5106569;28;19924;-68
2023/10/14 09:18:16;;;;;;;;;;;;;;;18.60;100.00;97353.50;5104380;28;19943;-68
2023/10/14 09:20:43;;;;;;;;;;;;;;;18.65;100.00;97353.28;5103172;28;19945;-67
2023/10/14 09:23:15;;;;;;;;;;;;;;;18.68;100.00;97353.44;5104038;28;19928;-68
2023/10/14 09:25:42;;;;;;;;;;;;;;;18.48;100.00;97342.53;5106322;28;19924;-68
2023/10/14 09:28:08;;;;;;;;;;;;;;;18.66;100.00;97357.59;5104906;28;19974;-68
2023/10/14 09:30:36;;;;;;;;;;;;;;;18.63;100.00;97366.34;5102574;28;19935;-68
2023/10/14 09:33:04;;;;;;;;;;;;;;;18.62;100.00;97359.34;5103162;28;19925;-68
2023/10/14 09:35:31;;;;;;;;;;;;;;;18.57;100.00;97356.84;5106298;28;19992;-68
2023/10/14 09:37:59;;;;;;;;;;;;;;;18.59;100.00;97357.31;5100099;28;19954;-67
2023/10/14 09:40:26;;;;;;;;;;;;;;;18.65;100.00;97364.09;5095447;28;19924;-68
2023/10/14 09:42:53;;;;;;;;;;;;;;;18.60;100.00;97369.72;5102926;28;19971;-68
2023/10/14 09:45:20;;;;;;;;;;;;;;;18.53;100.00;97362.13;5105337;28;19924;-68
2023/10/14 09:47:47;;;;;;;;;;;;;;;18.58;100.00;97353.81;5106067;28;19928;-69
2023/10/14 09:50:15;;;;;;;;;;;;;;;18.61;100.00;97349.66;5104168;28;19939;-68
2023/10/14 09:52:43;;;;;;;;;;;;;;;18.50;100.00;97346.53;5102953;28;19932;-68
2023/10/14 09:55:13;;;;;;;;;;;;;;;18.63;100.00;97361.72;5103908;28;19924;-67
2023/10/14 09:57:41;;;;;;;;;;;;;;;18.46;100.00;97369.91;5105937;28;19963;-67
2023/10/14 10:00:10;;;;;;;;;;;;;;;18.59;100.00;97357.31;5104717;28;19924;-67
2023/10/14 10:02:38;;;;;;;;;;;;;;;18.58;100.00;97353.00;5102236;28;19936;-67
2023/10/14 10:05:07;;;;;;;;;;;;;;;18.61;100.00;97353.16;5102440;28;20528;-67
2023/10/14 10:07:42;;;;;;;;;;;;;;;18.73;100.00;97360.53;5098794;28;19974;-67
2023/10/14 10:10:19;;;;;;;;;;;;;;;18.77;100.00;97364.19;5103377;28;19924;-67
2023/10/14 10:12:52;;;;;;;;;;;;;;;18.72;100.00;97367.09;5100840;28;19928;-68
2023/10/14 10:15:20;;;;;;;;;;;;;;;18.85;100.00;97358.69;5104488;28;19924;-68
2023/10/14 10:17:54;;;;;;;;;;;;;;;18.91;100.00;97362.00;5104956;28;19924;-67
2023/10/14 10:20:27;;;;;;;;;;;;;;;18.80;100.00;97355.41;5101355;28;19939;-67
2023/10/14 10:22:56;;;;;;;;;;;;;;;18.77;100.00;97356.06;5102190;28;19924;-67
2023/10/14 10:25:23;;;;;;;;;;;;;;;18.62;100.00;97349.31;5105086;28;19923;-68
2023/10/14 10:27:55;;;;;;;;;;;;;;;18.85;100.00;97347.09;5105499;28;19928;-68
2023/10/14 10:30:22;;;;;;;;;;;;;;;18.74;100.00;97349.41;5102317;28;19925;-69
2023/10/14 10:32:50;;;;;;;;;;;;;;;18.53;100.00;97339.69;5101710;28;19928;-68
2023/10/14 10:35:18;;;;;;;;;;;;;;;18.75;100.00;97329.31;5103517;28;19939;-68
2023/10/14 10:37:46;;;;;;;;;;;;;;;18.63;100.00;97331.19;5097419;28;19924;-67
2023/10/14 10:40:15;;;;;;;;;;;;;;;18.59;100.00;97324.84;5103077;28;19979;-68
2023/10/14 10:42:42;;;;;;;;;;;;;;;18.71;100.00;97319.50;5101381;28;19924;-68
2023/10/14 10:45:10;;;;;;;;;;;;;;;18.84;100.00;97334.69;5103555;28;19931;-69
2023/10/14 10:47:45;;;;;;;;;;;;;;;18.79;100.00;97340.28;5105434;28;19924;-68
2023/10/14 10:50:15;;;;;;;;;;;;;;;18.85;100.00;97334.34;5104059;28;19924;-69
2023/10/14 10:52:41;;;;;;;;;;;;;;;18.77;100.00;97334.44;5102220;28;19947;-68
2023/10/14 10:55:08;;;;;;;;;;;;;;;18.75;100.00;97337.44;5103329;28;19912;-68
2023/10/14 10:57:36;;;;;;;;;;;;;;;18.85;100.00;97338.97;5105378;28;19932;-69
2023/10/14 11:00:09;;;;;;;;;;;;;;;18.79;100.00;97332.16;5105270;28;19924;-67
2023/10/14 11:02:35;;;;;;;;;;;;;;;18.91;100.00;97334.94;5101915;28;19924;-68
2023/10/14 11:05:04;;;;;;;;;;;;;;;19.10;100.00;97329.84;5102038;28;19964;-68
2023/10/14 11:07:32;;;;;;;;;;;;;;;18.99;100.00;97331.41;5098568;28;19928;-67
2023/10/14 11:10:00;;;;;;;;;;;;;;;19.05;100.00;97340.88;5105476;28;19924;-67
2023/10/14 11:12:26;;;;;;;;;;;;;;;18.94;100.00;97330.81;5094000;28;19975;-67
2023/10/14 11:14:58;;;;;;;;;;;;;;;19.04;100.00;97323.06;5101388;28;19930;-67
2023/10/14 11:17:26;;;;;;;;;;;;;;;19.22;100.00;97324.50;5104906;28;20015;-68
2023/10/14 11:19:53;;;;;;;;;;;;;;;19.25;100.00;97323.81;5105286;28;20004;-68
2023/10/14 11:22:20;;;;;;;;;;;;;;;19.25;100.00;97317.59;5102040;28;19935;-68
2023/10/14 11:24:47;;;;;;;;;;;;;;;19.15;100.00;97315.34;5101551;28;19976;-68
2023/10/14 11:27:13;;;;;;;;;;;;;;;19.19;100.00;97313.53;5103461;28;19932;-68
2023/10/14 11:29:41;;;;;;;;;;;;;;;19.19;100.00;97322.44;5105452;28;19924;-68
2023/10/14 11:32:12;;;;;;;;;;;;;;;19.28;100.00;97320.44;5104819;28;20503;-68
2023/10/14 11:34:41;;;;;;;;;;;;;;;19.10;100.00;97321.72;5102360;28;19937;-68
2023/10/14 11:37:09;;;;;;;;;;;;;;;19.13;100.00;97334.59;5097465;28;19967;-68
2023/10/14 11:39:36;;;;;;;;;;;;;;;19.18;100.00;97339.84;5106799;28;19935;-69
2023/10/14 11:42:03;;;;;;;;;;;;;;;19.13;100.00;97337.31;5104991;28;19924;-68
2023/10/14 11:44:29;;;;;;;;;;;;;;;18.96;100.00;97339.38;5102401;28;19928;-68
2023/10/14 11:46:57;;;;;;;;;;;;;;;19.02;100.00;97332.63;5103289;28;19925;-67
2023/10/14 11:49:25;;;;;;;;;;;;;;;19.00;100.00;97349.19;5101403;28;19964;-67
2023/10/14 11:51:51;;;;;;;;;;;;;;;18.89;100.00;97358.84;5100690;28;19951;-67
2023/10/14 11:54:18;;;;;;;;;;;;;;;18.79;100.00;97359.22;5102892;28;19925;-67
2023/10/14 11:56:44;;;;;;;;;;;;;;;18.59;100.00;97370.81;5103441;28;19977;-67
2023/10/14 11:59:12;;;;;;;;;;;;;;;18.51;100.00;97379.75;5101932;28;19931;-68
2023/10/14 12:01:38;;;;;;;;;;;;;;;18.35;100.00;97377.59;5099747;28;20389;-67
2023/10/14 12:04:05;;;;;;;;;;;;;;;18.28;100.00;97376.53;5100672;28;19971;-67
2023/10/14 12:06:34;;;;;;;;;;;;;;;18.27;100.00;97380.34;5095521;28;19939;-67
2023/10/14 12:09:05;;;;;;;;;;;;;;;18.32;100.00;97383.66;5100009;28;19925;-68
2023/10/14 12:11:39;;;;;;;;;;;;;;;18.29;100.00;97383.50;5103248;28;19928;-68
2023/10/14 12:14:07;;;;;;;;;;;;;;;18.25;100.00;97390.69;5102642;28;19924;-67
2023/10/14 12:16:33;;;;;;;;;;;;;;;18.14;100.00;97386.75;5100242;28;19924;-67
2023/10/14 12:19:00;;;;;;;;;;;;;;;18.23;100.00;97388.28;5100411;28;19932;-67
2023/10/14 12:21:26;;;;;;;;;;;;;;;18.25;100.00;97380.69;5091605;28;19931;-67
2023/10/14 12:23:55;;;;;;;;;;;;;;;18.31;100.00;97395.59;5099529;28;19925;-67
2023/10/14 12:26:21;;;;;;;;;;;;;;;18.35;100.00;97383.00;5102312;28;19924;-67
2023/10/14 12:28:49;;;;;;;;;;;;;;;18.34;100.00;97381.44;5102841;28;19924;-67
2023/10/14 12:31:16;;;;;;;;;;;;;;;18.26;100.00;97374.13;5100364;28;19927;-67
2023/10/14 12:33:43;;;;;;;;;;;;;;;18.09;100.00;97371.53;5099315;28;19971;-68
2023/10/14 12:36:10;;;;;;;;;;;;;;;18.00;100.00;97381.56;5093924;28;19964;-67
2023/10/14 12:38:38;;;;;;;;;;;;;;;18.01;100.00;97388.53;5099491;28;20000;-66
2023/10/14 12:41:07;;;;;;;;;;;;;;;18.04;100.00;97404.09;5100329;28;19924;-67
2023/10/14 12:43:36;;;;;;;;;;;;;;;18.01;100.00;97395.88;5102750;28;19924;-67
2023/10/14 12:46:12;;;;;;;;;;;;;;;18.06;100.00;97385.69;5101996;28;19951;-66
2023/10/14 12:48:40;;;;;;;;;;;;;;;18.05;100.00;97384.09;5099086;28;19964;-67